sensor_id;sensor_type;location;lat;lon;timestamp;temperature;humidity
64143;DHT22;50437;51.970;5.904;2022-11-15T00:01:50;7.40;99.90
64143;DHT22;50437;51.970;5.904;2022-11-15T00:04:34;7.40;99.90
64143;DHT22;50437;51.970;5.904;2022-11-15T00:07:19;7.40;99.90
64143;DHT22;50437;51.970;5.904;2022-11-15T00:10:04;7.40;99.90
64143;DHT22;50437;51.970;5.904;2022-11-15T00:12:48;7.40;99.90
64143;DHT22;50437;51.970;5.904;2022-11-15T00:15:36;7.40;99.90
64143;DHT22;50437;51.970;5.904;2022-11-15T00:18:21;7.40;99.90
64143;DHT22;50437;51.970;5.904;2022-11-15T00:21:07;7.40;99.90
64143;DHT22;50437;51.970;5.904;2022-11-15T00:23:51;7.40;99.90
64143;DHT22;50437;51.970;5.904;2022-11-15T00:26:36;7.40;99.90
64143;DHT22;50437;51.970;5.904;2022-11-15T00:29:20;7.50;99.90
64143;DHT22;50437;51.970;5.904;2022-11-15T00:32:05;7.40;99.90
64143;DHT22;50437;51.970;5.904;2022-11-15T00:34:49;7.40;99.90
64143;DHT22;50437;51.970;5.904;2022-11-15T00:37:34;7.40;99.90
64143;DHT22;50437;51.970;5.904;2022-11-15T00:40:19;7.40;99.90
64143;DHT22;50437;51.970;5.904;2022-11-15T00:43:03;7.40;99.90
64143;DHT22;50437;51.970;5.904;2022-11-15T00:45:49;7.40;99.90
64143;DHT22;50437;51.970;5.904;2022-11-15T00:48:33;7.40;99.90
64143;DHT22;50437;51.970;5.904;2022-11-15T00:51:18;7.50;99.90
64143;DHT22;50437;51.970;5.904;2022-11-15T00:54:03;7.50;99.90
64143;DHT22;50437;51.970;5.904;2022-11-15T00:56:47;7.40;99.90
64143;DHT22;50437;51.970;5.904;2022-11-15T00:59:32;7.40;99.90
64143;DHT22;50437;51.970;5.904;2022-11-15T01:02:16;7.50;99.90
64143;DHT22;50437;51.970;5.904;2022-11-15T01:05:01;7.50;99.90
64143;DHT22;50437;51.970;5.904;2022-11-15T01:07:51;7.40;99.90
64143;DHT22;50437;51.970;5.904;2022-11-15T01:10:36;7.40;99.90
64143;DHT22;50437;51.970;5.904;2022-11-15T01:13:22;7.50;99.90
64143;DHT22;50437;51.970;5.904;2022-11-15T01:16:10;7.50;99.90
64143;DHT22;50437;51.970;5.904;2022-11-15T01:18:56;7.50;99.90
64143;DHT22;50437;51.970;5.904;2022-11-15T01:21:41;7.60;99.90
64143;DHT22;50437;51.970;5.904;2022-11-15T01:24:26;7.60;99.90
64143;DHT22;50437;51.970;5.904;2022-11-15T01:27:11;7.60;99.90
64143;DHT22;50437;51.970;5.904;2022-11-15T01:29:56;7.70;99.90
64143;DHT22;50437;51.970;5.904;2022-11-15T01:32:40;7.70;99.90
64143;DHT22;50437;51.970;5.904;2022-11-15T01:35:25;7.70;99.90
64143;DHT22;50437;51.970;5.904;2022-11-15T01:38:09;7.70;99.90
64143;DHT22;50437;51.970;5.904;2022-11-15T01:40:54;7.80;99.90
64143;DHT22;50437;51.970;5.904;2022-11-15T01:43:39;7.80;99.90
64143;DHT22;50437;51.970;5.904;2022-11-15T01:46:33;7.80;99.90
64143;DHT22;50437;51.970;5.904;2022-11-15T01:49:19;7.80;99.90
64143;DHT22;50437;51.970;5.904;2022-11-15T01:52:05;7.90;99.90
64143;DHT22;50437;51.970;5.904;2022-11-15T01:55:10;7.90;99.90
64143;DHT22;50437;51.970;5.904;2022-11-15T01:57:59;7.90;99.90
64143;DHT22;50437;51.970;5.904;2022-11-15T02:00:45;8.00;99.90
64143;DHT22;50437;51.970;5.904;2022-11-15T02:03:54;8.00;99.90
64143;DHT22;50437;51.970;5.904;2022-11-15T02:06:36;8.10;99.90
64143;DHT22;50437;51.970;5.904;2022-11-15T02:09:22;8.10;99.90
64143;DHT22;50437;51.970;5.904;2022-11-15T02:12:07;8.10;99.90
64143;DHT22;50437;51.970;5.904;2022-11-15T02:14:53;8.10;99.90
64143;DHT22;50437;51.970;5.904;2022-11-15T02:20:43;8.20;99.90
64143;DHT22;50437;51.970;5.904;2022-11-15T02:23:36;8.20;99.90
64143;DHT22;50437;51.970;5.904;2022-11-15T02:26:28;8.30;99.90
64143;DHT22;50437;51.970;5.904;2022-11-15T02:29:23;8.30;99.90
64143;DHT22;50437;51.970;5.904;2022-11-15T02:32:19;8.30;99.90
64143;DHT22;50437;51.970;5.904;2022-11-15T02:35:09;8.40;99.90
64143;DHT22;50437;51.970;5.904;2022-11-15T02:37:57;8.40;99.90
64143;DHT22;50437;51.970;5.904;2022-11-15T02:40:49;8.40;99.90
64143;DHT22;50437;51.970;5.904;2022-11-15T02:43:40;8.50;99.90
64143;DHT22;50437;51.970;5.904;2022-11-15T02:49:57;8.50;99.90
64143;DHT22;50437;51.970;5.904;2022-11-15T02:52:46;8.50;99.90
64143;DHT22;50437;51.970;5.904;2022-11-15T02:55:38;8.60;99.90
64143;DHT22;50437;51.970;5.904;2022-11-15T03:03:59;8.60;99.90
64143;DHT22;50437;51.970;5.904;2022-11-15T03:09:35;8.70;99.90
64143;DHT22;50437;51.970;5.904;2022-11-15T03:12:28;8.70;99.90
64143;DHT22;50437;51.970;5.904;2022-11-15T03:15:20;8.70;99.90
64143;DHT22;50437;51.970;5.904;2022-11-15T03:18:07;8.80;99.90
64143;DHT22;50437;51.970;5.904;2022-11-15T03:20:55;8.90;99.90
64143;DHT22;50437;51.970;5.904;2022-11-15T03:23:40;8.90;99.90
64143;DHT22;50437;51.970;5.904;2022-11-15T03:26:24;9.00;99.90
64143;DHT22;50437;51.970;5.904;2022-11-15T03:29:13;9.00;99.90
64143;DHT22;50437;51.970;5.904;2022-11-15T03:32:19;9.10;99.90
64143;DHT22;50437;51.970;5.904;2022-11-15T03:35:09;9.10;99.90
64143;DHT22;50437;51.970;5.904;2022-11-15T03:38:15;9.20;99.90
64143;DHT22;50437;51.970;5.904;2022-11-15T03:41:03;9.20;99.90
64143;DHT22;50437;51.970;5.904;2022-11-15T03:43:56;9.30;99.90
64143;DHT22;50437;51.970;5.904;2022-11-15T03:46:44;9.30;99.90
64143;DHT22;50437;51.970;5.904;2022-11-15T03:49:32;9.30;99.90
64143;DHT22;50437;51.970;5.904;2022-11-15T03:52:19;9.40;99.90
64143;DHT22;50437;51.970;5.904;2022-11-15T03:55:04;9.40;99.90
64143;DHT22;50437;51.970;5.904;2022-11-15T03:57:51;9.50;99.90
64143;DHT22;50437;51.970;5.904;2022-11-15T04:00:35;9.50;99.90
64143;DHT22;50437;51.970;5.904;2022-11-15T04:03:20;9.60;99.90
64143;DHT22;50437;51.970;5.904;2022-11-15T04:06:05;9.60;99.90
64143;DHT22;50437;51.970;5.904;2022-11-15T04:08:50;9.60;99.90
64143;DHT22;50437;51.970;5.904;2022-11-15T04:11:35;9.70;99.90
64143;DHT22;50437;51.970;5.904;2022-11-15T04:14:19;9.70;99.90
64143;DHT22;50437;51.970;5.904;2022-11-15T04:17:04;9.80;99.90
64143;DHT22;50437;51.970;5.904;2022-11-15T04:19:48;9.80;99.90
64143;DHT22;50437;51.970;5.904;2022-11-15T04:22:52;9.90;99.90
64143;DHT22;50437;51.970;5.904;2022-11-15T04:25:56;10.00;99.90
64143;DHT22;50437;51.970;5.904;2022-11-15T04:28:45;9.90;99.90
64143;DHT22;50437;51.970;5.904;2022-11-15T04:31:48;10.00;99.90
64143;DHT22;50437;51.970;5.904;2022-11-15T04:34:33;10.00;99.90
64143;DHT22;50437;51.970;5.904;2022-11-15T04:37:17;10.00;99.90
64143;DHT22;50437;51.970;5.904;2022-11-15T04:40:02;10.00;99.90
64143;DHT22;50437;51.970;5.904;2022-11-15T04:42:47;10.00;99.90
64143;DHT22;50437;51.970;5.904;2022-11-15T04:45:31;10.00;99.90
64143;DHT22;50437;51.970;5.904;2022-11-15T04:48:16;10.00;99.90
64143;DHT22;50437;51.970;5.904;2022-11-15T04:51:00;10.10;99.90
64143;DHT22;50437;51.970;5.904;2022-11-15T04:53:45;10.10;99.90
64143;DHT22;50437;51.970;5.904;2022-11-15T04:56:30;10.10;99.90
64143;DHT22;50437;51.970;5.904;2022-11-15T04:59:14;10.10;99.90
64143;DHT22;50437;51.970;5.904;2022-11-15T05:01:59;10.20;99.90
64143;DHT22;50437;51.970;5.904;2022-11-15T05:04:43;10.20;99.90
64143;DHT22;50437;51.970;5.904;2022-11-15T05:07:28;10.20;99.90
64143;DHT22;50437;51.970;5.904;2022-11-15T05:10:13;10.20;99.90
64143;DHT22;50437;51.970;5.904;2022-11-15T05:12:57;10.20;99.90
64143;DHT22;50437;51.970;5.904;2022-11-15T05:15:43;10.30;99.90
64143;DHT22;50437;51.970;5.904;2022-11-15T05:18:27;10.20;99.90
64143;DHT22;50437;51.970;5.904;2022-11-15T05:21:13;10.30;99.90
64143;DHT22;50437;51.970;5.904;2022-11-15T05:23:58;10.20;99.90
64143;DHT22;50437;51.970;5.904;2022-11-15T05:26:42;10.20;99.90
64143;DHT22;50437;51.970;5.904;2022-11-15T05:29:27;10.20;99.90
64143;DHT22;50437;51.970;5.904;2022-11-15T05:32:12;10.20;99.90
64143;DHT22;50437;51.970;5.904;2022-11-15T05:34:57;10.20;99.90
64143;DHT22;50437;51.970;5.904;2022-11-15T05:37:41;10.20;99.90
64143;DHT22;50437;51.970;5.904;2022-11-15T05:40:26;10.20;99.90
64143;DHT22;50437;51.970;5.904;2022-11-15T05:43:11;10.30;99.90
64143;DHT22;50437;51.970;5.904;2022-11-15T05:45:56;10.30;99.90
64143;DHT22;50437;51.970;5.904;2022-11-15T05:48:43;10.30;99.90
64143;DHT22;50437;51.970;5.904;2022-11-15T05:51:28;10.30;99.90
64143;DHT22;50437;51.970;5.904;2022-11-15T05:54:14;10.30;99.90
64143;DHT22;50437;51.970;5.904;2022-11-15T05:56:59;10.30;99.90
64143;DHT22;50437;51.970;5.904;2022-11-15T05:59:45;10.30;99.90
64143;DHT22;50437;51.970;5.904;2022-11-15T06:02:30;10.30;99.90
64143;DHT22;50437;51.970;5.904;2022-11-15T06:05:15;10.30;99.90
64143;DHT22;50437;51.970;5.904;2022-11-15T06:07:59;10.30;99.90
64143;DHT22;50437;51.970;5.904;2022-11-15T06:10:43;10.30;99.90
64143;DHT22;50437;51.970;5.904;2022-11-15T06:13:28;10.40;99.90
64143;DHT22;50437;51.970;5.904;2022-11-15T06:16:13;10.30;99.90
64143;DHT22;50437;51.970;5.904;2022-11-15T06:18:57;10.30;99.90
64143;DHT22;50437;51.970;5.904;2022-11-15T06:21:42;10.30;99.90
64143;DHT22;50437;51.970;5.904;2022-11-15T06:24:26;10.30;99.90
64143;DHT22;50437;51.970;5.904;2022-11-15T06:27:11;10.30;99.90
64143;DHT22;50437;51.970;5.904;2022-11-15T06:29:55;10.30;99.90
64143;DHT22;50437;51.970;5.904;2022-11-15T06:32:40;10.40;99.90
64143;DHT22;50437;51.970;5.904;2022-11-15T06:35:25;10.30;99.90
64143;DHT22;50437;51.970;5.904;2022-11-15T06:38:10;10.30;99.90
64143;DHT22;50437;51.970;5.904;2022-11-15T06:40:55;10.30;99.90
64143;DHT22;50437;51.970;5.904;2022-11-15T06:43:44;10.30;99.90
64143;DHT22;50437;51.970;5.904;2022-11-15T06:46:29;10.30;99.90
64143;DHT22;50437;51.970;5.904;2022-11-15T06:49:14;10.30;99.90
64143;DHT22;50437;51.970;5.904;2022-11-15T06:51:58;10.30;99.90
64143;DHT22;50437;51.970;5.904;2022-11-15T06:54:43;10.20;99.90
64143;DHT22;50437;51.970;5.904;2022-11-15T06:57:27;10.30;99.90
64143;DHT22;50437;51.970;5.904;2022-11-15T07:00:12;10.30;99.90
64143;DHT22;50437;51.970;5.904;2022-11-15T07:02:59;10.20;99.90
64143;DHT22;50437;51.970;5.904;2022-11-15T07:05:51;10.20;99.90
64143;DHT22;50437;51.970;5.904;2022-11-15T07:08:36;10.20;99.90
64143;DHT22;50437;51.970;5.904;2022-11-15T07:11:21;10.20;99.90
64143;DHT22;50437;51.970;5.904;2022-11-15T07:14:06;10.20;99.90
64143;DHT22;50437;51.970;5.904;2022-11-15T07:16:50;10.20;99.90
64143;DHT22;50437;51.970;5.904;2022-11-15T07:19:36;10.20;99.90
64143;DHT22;50437;51.970;5.904;2022-11-15T07:22:20;10.30;99.90
64143;DHT22;50437;51.970;5.904;2022-11-15T07:25:05;10.30;99.90
64143;DHT22;50437;51.970;5.904;2022-11-15T07:27:59;10.30;99.90
64143;DHT22;50437;51.970;5.904;2022-11-15T07:30:43;10.30;99.90
64143;DHT22;50437;51.970;5.904;2022-11-15T07:33:28;10.30;99.90
64143;DHT22;50437;51.970;5.904;2022-11-15T07:36:13;10.40;99.90
64143;DHT22;50437;51.970;5.904;2022-11-15T07:38:57;10.40;99.90
64143;DHT22;50437;51.970;5.904;2022-11-15T07:41:42;10.50;99.90
64143;DHT22;50437;51.970;5.904;2022-11-15T07:44:27;10.50;99.90
64143;DHT22;50437;51.970;5.904;2022-11-15T07:47:12;10.60;99.90
64143;DHT22;50437;51.970;5.904;2022-11-15T07:49:56;10.60;99.90
64143;DHT22;50437;51.970;5.904;2022-11-15T07:52:41;10.60;99.90
64143;DHT22;50437;51.970;5.904;2022-11-15T07:55:26;10.60;99.90
64143;DHT22;50437;51.970;5.904;2022-11-15T07:58:11;10.60;99.90
64143;DHT22;50437;51.970;5.904;2022-11-15T08:00:56;10.60;99.90
64143;DHT22;50437;51.970;5.904;2022-11-15T08:03:41;10.60;99.90
64143;DHT22;50437;51.970;5.904;2022-11-15T08:06:25;10.70;99.90
64143;DHT22;50437;51.970;5.904;2022-11-15T08:09:10;10.60;99.90
64143;DHT22;50437;51.970;5.904;2022-11-15T08:11:54;10.70;99.90
64143;DHT22;50437;51.970;5.904;2022-11-15T08:14:39;10.70;99.90
64143;DHT22;50437;51.970;5.904;2022-11-15T08:17:24;10.80;99.90
64143;DHT22;50437;51.970;5.904;2022-11-15T08:20:09;10.80;99.90
64143;DHT22;50437;51.970;5.904;2022-11-15T08:22:54;10.80;99.90
64143;DHT22;50437;51.970;5.904;2022-11-15T08:25:39;10.80;99.90
64143;DHT22;50437;51.970;5.904;2022-11-15T08:28:23;10.80;99.90
64143;DHT22;50437;51.970;5.904;2022-11-15T08:31:15;10.80;99.90
64143;DHT22;50437;51.970;5.904;2022-11-15T08:34:01;10.90;99.90
64143;DHT22;50437;51.970;5.904;2022-11-15T08:36:46;10.90;99.90
64143;DHT22;50437;51.970;5.904;2022-11-15T08:39:31;10.90;99.90
64143;DHT22;50437;51.970;5.904;2022-11-15T08:42:16;11.00;99.90
64143;DHT22;50437;51.970;5.904;2022-11-15T08:45:00;11.00;99.90
64143;DHT22;50437;51.970;5.904;2022-11-15T08:47:45;11.10;99.90
64143;DHT22;50437;51.970;5.904;2022-11-15T08:50:29;11.10;99.90
64143;DHT22;50437;51.970;5.904;2022-11-15T08:53:14;11.10;99.90
64143;DHT22;50437;51.970;5.904;2022-11-15T08:55:58;11.20;99.90
64143;DHT22;50437;51.970;5.904;2022-11-15T08:58:43;11.20;99.90
64143;DHT22;50437;51.970;5.904;2022-11-15T09:01:28;11.30;99.90
64143;DHT22;50437;51.970;5.904;2022-11-15T09:04:12;11.30;99.90
64143;DHT22;50437;51.970;5.904;2022-11-15T09:06:57;11.50;99.90
64143;DHT22;50437;51.970;5.904;2022-11-15T09:09:41;11.60;99.90
64143;DHT22;50437;51.970;5.904;2022-11-15T09:12:26;11.50;99.90
64143;DHT22;50437;51.970;5.904;2022-11-15T09:15:10;11.50;99.90
64143;DHT22;50437;51.970;5.904;2022-11-15T09:17:57;11.50;99.90
64143;DHT22;50437;51.970;5.904;2022-11-15T09:20:45;11.40;99.90
64143;DHT22;50437;51.970;5.904;2022-11-15T09:23:30;11.40;99.90
64143;DHT22;50437;51.970;5.904;2022-11-15T09:26:14;11.30;99.90
64143;DHT22;50437;51.970;5.904;2022-11-15T09:28:59;11.30;99.90
64143;DHT22;50437;51.970;5.904;2022-11-15T09:31:45;11.30;99.90
64143;DHT22;50437;51.970;5.904;2022-11-15T09:34:29;11.30;99.90
64143;DHT22;50437;51.970;5.904;2022-11-15T09:37:14;11.30;99.90
64143;DHT22;50437;51.970;5.904;2022-11-15T09:39:59;11.40;99.90
64143;DHT22;50437;51.970;5.904;2022-11-15T09:45:37;11.50;99.90
64143;DHT22;50437;51.970;5.904;2022-11-15T09:51:41;11.70;99.90
64143;DHT22;50437;51.970;5.904;2022-11-15T09:54:29;11.70;99.90
64143;DHT22;50437;51.970;5.904;2022-11-15T09:56:56;11.80;99.90
64143;DHT22;50437;51.970;5.904;2022-11-15T10:04:42;12.20;99.90
64143;DHT22;50437;51.970;5.904;2022-11-15T10:07:13;12.20;99.90
64143;DHT22;50437;51.970;5.904;2022-11-15T10:09:42;12.20;99.90
64143;DHT22;50437;51.970;5.904;2022-11-15T10:12:09;12.10;99.90
64143;DHT22;50437;51.970;5.904;2022-11-15T10:14:37;12.30;99.90
64143;DHT22;50437;51.970;5.904;2022-11-15T10:17:11;12.40;99.90
64143;DHT22;50437;51.970;5.904;2022-11-15T10:19:40;12.40;99.90
64143;DHT22;50437;51.970;5.904;2022-11-15T10:22:21;12.20;99.90
64143;DHT22;50437;51.970;5.904;2022-11-15T10:24:50;12.20;99.90
64143;DHT22;50437;51.970;5.904;2022-11-15T10:27:18;12.10;99.90
64143;DHT22;50437;51.970;5.904;2022-11-15T10:29:45;12.10;99.90
64143;DHT22;50437;51.970;5.904;2022-11-15T10:32:12;12.00;99.90
64143;DHT22;50437;51.970;5.904;2022-11-15T10:34:38;12.00;99.90
64143;DHT22;50437;51.970;5.904;2022-11-15T10:37:04;12.10;99.90
64143;DHT22;50437;51.970;5.904;2022-11-15T10:39:30;12.10;99.90
64143;DHT22;50437;51.970;5.904;2022-11-15T10:41:56;12.20;99.90
64143;DHT22;50437;51.970;5.904;2022-11-15T10:44:24;12.30;99.90
64143;DHT22;50437;51.970;5.904;2022-11-15T10:49:17;13.30;99.90
64143;DHT22;50437;51.970;5.904;2022-11-15T10:51:47;13.50;99.90
64143;DHT22;50437;51.970;5.904;2022-11-15T10:54:21;13.90;99.90
64143;DHT22;50437;51.970;5.904;2022-11-15T10:56:52;14.00;99.90
64143;DHT22;50437;51.970;5.904;2022-11-15T10:59:23;14.10;99.90
64143;DHT22;50437;51.970;5.904;2022-11-15T11:01:49;14.30;99.90
64143;DHT22;50437;51.970;5.904;2022-11-15T11:04:15;13.90;99.90
64143;DHT22;50437;51.970;5.904;2022-11-15T11:12:00;13.10;99.90
64143;DHT22;50437;51.970;5.904;2022-11-15T11:14:29;13.00;99.90
64143;DHT22;50437;51.970;5.904;2022-11-15T11:17:16;13.40;99.90
64143;DHT22;50437;51.970;5.904;2022-11-15T11:19:59;13.80;99.90
64143;DHT22;50437;51.970;5.904;2022-11-15T11:22:46;14.20;99.90
64143;DHT22;50437;51.970;5.904;2022-11-15T11:25:25;14.50;98.40
64143;DHT22;50437;51.970;5.904;2022-11-15T11:33:21;14.70;94.40
64143;DHT22;50437;51.970;5.904;2022-11-15T11:36:11;14.60;91.80
64143;DHT22;50437;51.970;5.904;2022-11-15T11:48:43;14.40;88.90
64143;DHT22;50437;51.970;5.904;2022-11-15T11:51:15;14.30;91.10
64143;DHT22;50437;51.970;5.904;2022-11-15T11:53:55;14.30;91.20
64143;DHT22;50437;51.970;5.904;2022-11-15T11:56:25;14.30;91.70
64143;DHT22;50437;51.970;5.904;2022-11-15T11:58:53;14.30;92.00
64143;DHT22;50437;51.970;5.904;2022-11-15T12:01:22;14.00;91.50
64143;DHT22;50437;51.970;5.904;2022-11-15T12:03:51;13.70;92.30
64143;DHT22;50437;51.970;5.904;2022-11-15T12:06:22;13.70;92.90
64143;DHT22;50437;51.970;5.904;2022-11-15T12:08:54;13.80;91.40
64143;DHT22;50437;51.970;5.904;2022-11-15T12:11:28;14.10;94.30
64143;DHT22;50437;51.970;5.904;2022-11-15T12:13:57;14.00;91.00
64143;DHT22;50437;51.970;5.904;2022-11-15T12:16:33;13.60;90.60
64143;DHT22;50437;51.970;5.904;2022-11-15T12:19:00;13.60;90.90
64143;DHT22;50437;51.970;5.904;2022-11-15T12:21:39;13.30;91.20
64143;DHT22;50437;51.970;5.904;2022-11-15T12:24:08;13.30;91.90
64143;DHT22;50437;51.970;5.904;2022-11-15T12:26:40;13.30;92.30
64143;DHT22;50437;51.970;5.904;2022-11-15T12:29:21;13.20;92.20
64143;DHT22;50437;51.970;5.904;2022-11-15T12:31:50;13.00;93.50
64143;DHT22;50437;51.970;5.904;2022-11-15T12:36:46;12.90;92.80
64143;DHT22;50437;51.970;5.904;2022-11-15T12:39:13;12.80;92.90
64143;DHT22;50437;51.970;5.904;2022-11-15T12:44:13;12.50;93.50
64143;DHT22;50437;51.970;5.904;2022-11-15T13:02:17;12.80;92.70
64143;DHT22;50437;51.970;5.904;2022-11-15T13:04:44;12.70;92.50
64143;DHT22;50437;51.970;5.904;2022-11-15T13:07:10;12.60;91.50
64143;DHT22;50437;51.970;5.904;2022-11-15T13:09:56;12.50;91.00
64143;DHT22;50437;51.970;5.904;2022-11-15T13:14:52;12.60;91.50
64143;DHT22;50437;51.970;5.904;2022-11-15T13:19:52;12.60;91.30
64143;DHT22;50437;51.970;5.904;2022-11-15T13:22:18;12.60;91.40
64143;DHT22;50437;51.970;5.904;2022-11-15T13:25:03;12.70;91.30
64143;DHT22;50437;51.970;5.904;2022-11-15T13:27:29;12.60;91.50
64143;DHT22;50437;51.970;5.904;2022-11-15T13:29:55;12.60;92.10
64143;DHT22;50437;51.970;5.904;2022-11-15T13:32:21;12.60;91.20
64143;DHT22;50437;51.970;5.904;2022-11-15T13:34:48;12.40;91.00
64143;DHT22;50437;51.970;5.904;2022-11-15T13:39:48;12.50;90.30
64143;DHT22;50437;51.970;5.904;2022-11-15T13:42:19;12.50;90.70
64143;DHT22;50437;51.970;5.904;2022-11-15T13:44:58;12.50;91.00
64143;DHT22;50437;51.970;5.904;2022-11-15T13:47:25;12.40;92.00
64143;DHT22;50437;51.970;5.904;2022-11-15T13:49:52;12.40;91.50
64143;DHT22;50437;51.970;5.904;2022-11-15T13:52:18;12.40;92.00
64143;DHT22;50437;51.970;5.904;2022-11-15T13:57:19;12.40;92.70
64143;DHT22;50437;51.970;5.904;2022-11-15T14:02:12;12.30;93.50
64143;DHT22;50437;51.970;5.904;2022-11-15T14:04:44;12.20;93.60
64143;DHT22;50437;51.970;5.904;2022-11-15T14:07:15;12.20;93.10
64143;DHT22;50437;51.970;5.904;2022-11-15T14:09:41;12.20;93.20
64143;DHT22;50437;51.970;5.904;2022-11-15T14:14:55;12.10;93.40
64143;DHT22;50437;51.970;5.904;2022-11-15T14:19:54;12.10;93.80
64143;DHT22;50437;51.970;5.904;2022-11-15T14:22:23;12.00;94.60
64143;DHT22;50437;51.970;5.904;2022-11-15T14:25:05;11.90;95.10
64143;DHT22;50437;51.970;5.904;2022-11-15T14:27:31;11.90;95.40
64143;DHT22;50437;51.970;5.904;2022-11-15T14:29:57;11.90;94.90
64143;DHT22;50437;51.970;5.904;2022-11-15T14:32:25;11.90;95.00
64143;DHT22;50437;51.970;5.904;2022-11-15T14:34:57;11.90;95.80
64143;DHT22;50437;51.970;5.904;2022-11-15T14:37:27;11.80;96.00
64143;DHT22;50437;51.970;5.904;2022-11-15T14:39:53;11.80;95.30
64143;DHT22;50437;51.970;5.904;2022-11-15T14:42:20;11.80;95.70
64143;DHT22;50437;51.970;5.904;2022-11-15T14:44:46;11.80;96.00
64143;DHT22;50437;51.970;5.904;2022-11-15T14:47:12;11.80;96.50
64143;DHT22;50437;51.970;5.904;2022-11-15T14:49:38;11.80;96.10
64143;DHT22;50437;51.970;5.904;2022-11-15T14:52:16;11.80;95.90
64143;DHT22;50437;51.970;5.904;2022-11-15T14:54:45;11.80;95.70
64143;DHT22;50437;51.970;5.904;2022-11-15T14:57:11;11.70;96.10
64143;DHT22;50437;51.970;5.904;2022-11-15T14:59:37;11.70;96.30
64143;DHT22;50437;51.970;5.904;2022-11-15T15:02:07;11.70;96.00
64143;DHT22;50437;51.970;5.904;2022-11-15T15:04:34;11.60;96.30
64143;DHT22;50437;51.970;5.904;2022-11-15T15:07:00;11.60;96.00
64143;DHT22;50437;51.970;5.904;2022-11-15T15:09:26;11.60;96.30
64143;DHT22;50437;51.970;5.904;2022-11-15T15:11:52;11.60;96.50
64143;DHT22;50437;51.970;5.904;2022-11-15T15:14:20;11.60;96.50
64143;DHT22;50437;51.970;5.904;2022-11-15T15:16:46;11.60;96.50
64143;DHT22;50437;51.970;5.904;2022-11-15T15:19:12;11.50;96.10
64143;DHT22;50437;51.970;5.904;2022-11-15T15:21:38;11.50;95.80
64143;DHT22;50437;51.970;5.904;2022-11-15T15:24:04;11.60;96.60
64143;DHT22;50437;51.970;5.904;2022-11-15T15:26:30;11.50;96.60
64143;DHT22;50437;51.970;5.904;2022-11-15T15:28:59;11.50;96.10
64143;DHT22;50437;51.970;5.904;2022-11-15T15:31:25;11.50;96.40
64143;DHT22;50437;51.970;5.904;2022-11-15T15:33:51;11.50;96.50
64143;DHT22;50437;51.970;5.904;2022-11-15T15:36:17;11.50;96.30
64143;DHT22;50437;51.970;5.904;2022-11-15T15:38:44;11.50;96.10
64143;DHT22;50437;51.970;5.904;2022-11-15T15:41:10;11.40;96.60
64143;DHT22;50437;51.970;5.904;2022-11-15T15:43:36;11.40;96.70
64143;DHT22;50437;51.970;5.904;2022-11-15T15:46:02;11.40;96.80
64143;DHT22;50437;51.970;5.904;2022-11-15T15:48:28;11.40;96.40
64143;DHT22;50437;51.970;5.904;2022-11-15T15:50:54;11.40;96.60
64143;DHT22;50437;51.970;5.904;2022-11-15T15:53:20;11.50;96.80
64143;DHT22;50437;51.970;5.904;2022-11-15T15:55:46;11.40;96.50
64143;DHT22;50437;51.970;5.904;2022-11-15T15:58:12;11.40;96.50
64143;DHT22;50437;51.970;5.904;2022-11-15T16:00:38;11.50;96.70
64143;DHT22;50437;51.970;5.904;2022-11-15T16:03:04;11.40;97.20
64143;DHT22;50437;51.970;5.904;2022-11-15T16:05:30;11.40;97.50
64143;DHT22;50437;51.970;5.904;2022-11-15T16:07:56;11.40;97.70
64143;DHT22;50437;51.970;5.904;2022-11-15T16:12:48;11.50;97.70
64143;DHT22;50437;51.970;5.904;2022-11-15T16:15:14;11.50;97.40
64143;DHT22;50437;51.970;5.904;2022-11-15T16:17:42;11.50;98.00
64143;DHT22;50437;51.970;5.904;2022-11-15T16:22:47;11.50;98.50
64143;DHT22;50437;51.970;5.904;2022-11-15T16:25:14;11.50;98.60
64143;DHT22;50437;51.970;5.904;2022-11-15T16:27:40;11.50;98.70
64143;DHT22;50437;51.970;5.904;2022-11-15T16:30:12;11.50;99.00
64143;DHT22;50437;51.970;5.904;2022-11-15T16:32:39;11.60;99.00
64143;DHT22;50437;51.970;5.904;2022-11-15T16:35:05;11.70;99.10
64143;DHT22;50437;51.970;5.904;2022-11-15T16:37:31;11.60;99.00
64143;DHT22;50437;51.970;5.904;2022-11-15T16:39:57;11.70;99.10
64143;DHT22;50437;51.970;5.904;2022-11-15T16:42:23;11.60;99.50
64143;DHT22;50437;51.970;5.904;2022-11-15T16:44:49;11.60;99.50
64143;DHT22;50437;51.970;5.904;2022-11-15T16:47:18;11.70;99.80
64143;DHT22;50437;51.970;5.904;2022-11-15T16:49:47;11.70;99.90
64143;DHT22;50437;51.970;5.904;2022-11-15T16:52:13;11.70;99.90
64143;DHT22;50437;51.970;5.904;2022-11-15T16:54:39;11.70;99.90
64143;DHT22;50437;51.970;5.904;2022-11-15T16:57:06;11.80;99.90
64143;DHT22;50437;51.970;5.904;2022-11-15T16:59:33;11.70;99.90
64143;DHT22;50437;51.970;5.904;2022-11-15T17:01:59;11.70;99.90
64143;DHT22;50437;51.970;5.904;2022-11-15T17:04:25;11.80;99.80
64143;DHT22;50437;51.970;5.904;2022-11-15T17:06:55;11.80;99.90
64143;DHT22;50437;51.970;5.904;2022-11-15T17:09:22;11.70;99.90
64143;DHT22;50437;51.970;5.904;2022-11-15T17:11:51;11.80;99.90
64143;DHT22;50437;51.970;5.904;2022-11-15T17:14:17;11.80;99.90
64143;DHT22;50437;51.970;5.904;2022-11-15T17:16:43;11.80;99.90
64143;DHT22;50437;51.970;5.904;2022-11-15T17:19:13;11.80;99.90
64143;DHT22;50437;51.970;5.904;2022-11-15T17:21:40;11.80;99.90
64143;DHT22;50437;51.970;5.904;2022-11-15T17:24:06;11.90;99.90
64143;DHT22;50437;51.970;5.904;2022-11-15T17:26:32;11.80;99.90
64143;DHT22;50437;51.970;5.904;2022-11-15T17:28:57;11.80;99.90
64143;DHT22;50437;51.970;5.904;2022-11-15T17:31:25;11.80;99.90
64143;DHT22;50437;51.970;5.904;2022-11-15T17:33:51;11.90;99.90
64143;DHT22;50437;51.970;5.904;2022-11-15T17:36:17;11.90;99.90
64143;DHT22;50437;51.970;5.904;2022-11-15T17:38:47;12.00;99.90
64143;DHT22;50437;51.970;5.904;2022-11-15T17:41:17;11.90;99.90
64143;DHT22;50437;51.970;5.904;2022-11-15T17:43:43;11.90;99.90
64143;DHT22;50437;51.970;5.904;2022-11-15T17:46:13;11.90;99.90
64143;DHT22;50437;51.970;5.904;2022-11-15T17:48:39;11.90;99.90
64143;DHT22;50437;51.970;5.904;2022-11-15T17:51:06;11.80;99.90
64143;DHT22;50437;51.970;5.904;2022-11-15T17:53:33;11.80;99.90
64143;DHT22;50437;51.970;5.904;2022-11-15T17:56:00;11.80;99.90
64143;DHT22;50437;51.970;5.904;2022-11-15T17:58:26;11.80;99.90
64143;DHT22;50437;51.970;5.904;2022-11-15T18:00:52;11.80;99.90
64143;DHT22;50437;51.970;5.904;2022-11-15T18:03:18;11.80;99.90
64143;DHT22;50437;51.970;5.904;2022-11-15T18:05:44;11.80;99.90
64143;DHT22;50437;51.970;5.904;2022-11-15T18:08:10;11.70;99.90
64143;DHT22;50437;51.970;5.904;2022-11-15T18:10:36;11.80;99.90
64143;DHT22;50437;51.970;5.904;2022-11-15T18:13:02;11.80;99.90
64143;DHT22;50437;51.970;5.904;2022-11-15T18:15:28;11.80;99.90
64143;DHT22;50437;51.970;5.904;2022-11-15T18:17:54;11.80;99.90